Time;durP1;ratioP1;P1;durP2;ratioP2;P2;SDS_P1;SDS_P2;PMS_P1;PMS_P2;Temp;Humidity;BMP_temperature;BMP_pressure;BME280_temperature;BME280_humidity;BME280_pressure;Samples;Min_cycle;Max_cycle;Signal;HPM_P1;HPM_P2
2023/06/04 00:00:46;;;;;;;4.50;1.48;;;10.70;92.40;;;;;;1948725;28;20480;-63
2023/06/04 00:01:46;;;;;;;2.28;1.58;;;12.20;93.10;;;;;;1946804;28;20043;-62
2023/06/04 00:02:43;;;;;;;2.22;1.48;;;10.70;91.90;;;;;;1949642;28;20031;-63
2023/06/04 00:03:41;;;;;;;4.30;1.55;;;10.70;91.80;;;;;;1948304;28;20026;-63
2023/06/04 00:04:38;;;;;;;1.77;1.50;;;10.70;92.00;;;;;;1949323;28;20079;-63
2023/06/04 00:05:36;;;;;;;1.58;1.33;;;10.70;92.70;;;;;;1949158;28;20138;-63
2023/06/04 00:06:33;;;;;;;6.07;1.60;;;10.70;93.80;;;;;;1949462;28;20027;-62
2023/06/04 00:07:31;;;;;;;2.80;1.73;;;10.70;94.00;;;;;;1945508;28;20027;-63
2023/06/04 00:08:28;;;;;;;1.90;1.40;;;10.70;93.90;;;;;;1953506;28;20045;-63
2023/06/04 00:09:26;;;;;;;2.35;1.45;;;10.70;94.20;;;;;;1950065;28;20026;-63
2023/06/04 00:10:23;;;;;;;7.38;1.83;;;10.70;94.40;;;;;;1947615;28;20053;-63
2023/06/04 00:11:21;;;;;;;3.28;1.48;;;10.70;93.70;;;;;;1947046;28;20041;-63
2023/06/04 00:12:18;;;;;;;4.28;2.05;;;10.70;93.40;;;;;;1948172;28;20432;-62
2023/06/04 00:13:16;;;;;;;1.75;1.65;;;10.20;93.80;;;;;;1948109;28;20178;-63
2023/06/04 00:14:14;;;;;;;2.17;1.42;;;10.70;94.70;;;;;;1951210;28;20393;-63
2023/06/04 00:15:13;;;;;;;2.47;1.60;;;10.70;94.40;;;;;;1947237;28;20129;-63
2023/06/04 00:16:11;;;;;;;3.08;1.95;;;10.60;94.70;;;;;;1950413;28;20058;-63
2023/06/04 00:17:09;;;;;;;2.05;1.52;;;10.60;95.70;;;;;;1944886;28;20022;-62
2023/06/04 00:18:07;;;;;;;3.25;1.33;;;10.60;95.50;;;;;;1947699;28;20453;-62
2023/06/04 00:19:04;;;;;;;2.08;1.63;;;10.60;95.30;;;;;;1951137;28;20026;-63
2023/06/04 00:20:02;;;;;;;2.00;1.65;;;10.60;94.50;;;;;;1951707;28;20081;-63
2023/06/04 00:21:00;;;;;;;1.98;1.48;;;10.60;94.60;;;;;;1946497;28;20358;-64
2023/06/04 00:21:57;;;;;;;9.20;1.80;;;10.60;94.50;;;;;;1948860;28;20042;-63
2023/06/04 00:22:55;;;;;;;4.88;2.08;;;10.60;94.60;;;;;;1946193;28;20046;-62
2023/06/04 00:23:52;;;;;;;3.17;1.80;;;10.70;94.70;;;;;;1947586;28;20023;-63
2023/06/04 00:24:50;;;;;;;1.83;1.50;;;10.70;94.60;;;;;;1953877;28;20089;-63
2023/06/04 00:25:47;;;;;;;4.22;1.70;;;10.70;94.40;;;;;;1955608;28;20069;-64
2023/06/04 00:26:45;;;;;;;3.30;1.90;;;10.70;93.90;;;;;;1947271;28;20107;-62
2023/06/04 00:27:42;;;;;;;4.90;1.52;;;10.70;95.00;;;;;;1948606;28;20026;-64
2023/06/04 00:28:40;;;;;;;5.00;1.63;;;10.80;94.60;;;;;;1950653;28;20027;-64
2023/06/04 00:29:37;;;;;;;4.40;1.60;;;10.80;94.50;;;;;;1947957;28;20073;-63
2023/06/04 00:30:35;;;;;;;2.58;1.75;;;10.80;94.90;;;;;;1947500;28;20129;-63
2023/06/04 00:31:32;;;;;;;2.92;2.10;;;10.80;94.40;;;;;;1945610;28;20031;-64
2023/06/04 00:32:30;;;;;;;3.95;1.52;;;10.80;94.40;;;;;;1948188;28;20668;-63
2023/06/04 00:33:27;;;;;;;5.07;1.77;;;10.80;94.20;;;;;;1948034;28;20161;-65
2023/06/04 00:34:25;;;;;;;3.30;1.92;;;10.80;93.60;;;;;;1950635;28;20416;-63
2023/06/04 00:35:23;;;;;;;2.70;1.52;;;10.80;93.60;;;;;;1949634;28;20039;-63
2023/06/04 00:36:20;;;;;;;5.82;2.00;;;10.80;93.80;;;;;;1949472;28;20046;-63
2023/06/04 00:37:18;;;;;;;3.47;1.92;;;10.80;94.20;;;;;;1946476;28;20019;-63
2023/06/04 00:38:15;;;;;;;3.22;1.83;;;10.90;93.60;;;;;;1950445;28;20931;-63
2023/06/04 00:39:13;;;;;;;3.10;1.83;;;10.90;93.50;;;;;;1949593;28;20085;-63
2023/06/04 00:40:11;;;;;;;3.35;1.80;;;10.90;93.30;;;;;;1947927;28;20517;-64
2023/06/04 00:41:08;;;;;;;2.70;1.83;;;10.90;93.30;;;;;;1948622;28;20110;-63
2023/06/04 00:42:06;;;;;;;2.88;1.77;;;10.90;93.30;;;;;;1946841;28;20038;-64
2023/06/04 00:43:05;;;;;;;6.60;1.90;;;10.90;93.40;;;;;;1948477;28;20018;-63
2023/06/04 00:44:06;;;;;;;3.78;2.17;;;10.90;93.40;;;;;;1950341;28;20035;-63
2023/06/04 00:45:07;;;;;;;2.33;1.73;;;10.90;93.40;;;;;;1946511;28;20081;-62
2023/06/04 00:46:06;;;;;;;2.83;2.03;;;10.90;94.00;;;;;;1948646;28;20400;-63
2023/06/04 00:47:04;;;;;;;3.78;2.28;;;10.90;93.80;;;;;;1948028;28;20046;-62
2023/06/04 00:48:01;;;;;;;6.43;2.47;;;10.90;94.00;;;;;;1948425;28;20097;-65
2023/06/04 00:48:59;;;;;;;3.55;1.90;;;10.90;94.00;;;;;;1948617;28;20527;-63
2023/06/04 00:49:57;;;;;;;3.28;2.15;;;10.90;93.90;;;;;;1956784;28;20541;-64
2023/06/04 00:50:55;;;;;;;3.95;2.15;;;10.80;94.70;;;;;;1954984;28;20499;-63
2023/06/04 00:51:52;;;;;;;3.65;2.20;;;10.90;95.00;;;;;;1946822;28;20082;-65
2023/06/04 00:52:50;;;;;;;3.72;1.80;;;10.80;95.10;;;;;;1948746;28;20031;-63
2023/06/04 00:53:50;;;;;;;2.70;1.90;;;10.80;95.00;;;;;;1942526;28;20114;-63
2023/06/04 00:54:48;;;;;;;4.40;2.10;;;10.80;94.90;;;;;;1948838;28;20034;-62
2023/06/04 00:55:46;;;;;;;2.08;1.88;;;10.80;94.80;;;;;;1946903;28;20042;-63
2023/06/04 00:56:44;;;;;;;3.10;2.42;;;10.80;94.80;;;;;;1946626;28;20046;-64
2023/06/04 00:57:41;;;;;;;4.45;2.28;;;10.80;95.20;;;;;;1949718;28;20023;-63
2023/06/04 00:58:39;;;;;;;3.00;1.95;;;10.80;95.60;;;;;;1948027;28;20030;-64
2023/06/04 00:59:38;;;;;;;5.80;1.92;;;10.80;95.50;;;;;;1950063;28;20069;-64
2023/06/04 01:00:36;;;;;;;2.42;2.05;;;10.70;95.80;;;;;;1945844;28;20031;-63
2023/06/04 01:01:42;;;;;;;2.55;1.92;;;10.70;95.70;;;;;;1944871;28;20030;-64
2023/06/04 01:02:40;;;;;;;9.38;2.92;;;10.70;96.10;;;;;;1950090;28;20026;-63
2023/06/04 01:03:38;;;;;;;2.55;1.92;;;10.70;97.00;;;;;;1943664;28;20138;-62
2023/06/04 01:04:55;;;;;;;4.60;2.20;;;10.70;96.40;;;;;;1942692;28;20082;-63
2023/06/04 01:06:00;;;;;;;3.92;2.13;;;10.70;96.70;;;;;;1953925;28;20026;-63
2023/06/04 01:07:00;;;;;;;7.88;2.47;;;10.60;96.80;;;;;;1948514;28;20193;-63
2023/06/04 01:07:57;;;;;;;3.83;2.58;;;10.60;96.80;;;;;;1941219;28;20075;-63
2023/06/04 01:08:55;;;;;;;3.35;1.90;;;10.60;96.30;;;;;;1949010;28;20034;-63
2023/06/04 01:09:52;;;;;;;4.43;2.65;;;10.60;96.40;;;;;;1946261;28;20038;-63
2023/06/04 01:10:53;;;;;;;5.32;2.22;;;10.60;96.40;;;;;;1947557;28;20034;-63
2023/06/04 01:11:51;;;;;;;6.15;2.70;;;10.60;96.40;;;;;;1947242;28;20424;-63
2023/06/04 01:12:48;;;;;;;4.00;2.30;;;10.60;96.60;;;;;;1948841;28;20061;-63
2023/06/04 01:13:46;;;;;;;3.50;2.40;;;10.60;96.70;;;;;;1945471;28;20449;-63
2023/06/04 01:14:44;;;;;;;2.88;1.90;;;10.50;96.80;;;;;;1947850;28;20042;-64
2023/06/04 01:15:41;;;;;;;2.65;2.05;;;10.50;96.90;;;;;;1948549;28;20962;-62
2023/06/04 01:16:50;;;;;;;5.20;2.70;;;10.50;96.80;;;;;;1948440;28;20075;-64
2023/06/04 01:17:52;;;;;;;9.05;2.42;;;10.50;96.80;;;;;;1949016;28;22369;-63
2023/06/04 01:18:51;;;;;;;3.90;2.10;;;10.50;97.70;;;;;;1949203;28;20034;-64
2023/06/04 01:19:54;;;;;;;4.78;2.45;;;10.50;97.30;;;;;;1947774;28;20057;-64
2023/06/04 01:20:51;;;;;;;6.22;2.55;;;10.50;97.10;;;;;;1947519;28;20023;-62
2023/06/04 01:21:51;;;;;;;5.90;2.33;;;10.40;97.50;;;;;;1939628;28;20039;-63
2023/06/04 01:22:54;;;;;;;2.95;1.98;;;10.40;98.00;;;;;;1940296;28;20031;-64
2023/06/04 01:23:58;;;;;;;5.03;2.15;;;10.40;98.20;;;;;;1943262;28;20384;-63
2023/06/04 01:24:56;;;;;;;3.10;2.05;;;10.40;98.00;;;;;;1949232;28;20414;-62
2023/06/04 01:25:53;;;;;;;3.28;2.08;;;10.40;97.70;;;;;;1947603;28;20031;-62
2023/06/04 01:26:51;;;;;;;2.30;2.10;;;10.30;97.70;;;;;;1946987;28;20484;-64
2023/06/04 01:27:55;;;;;;;3.03;2.08;;;10.40;97.30;;;;;;1958543;28;20048;-64
2023/06/04 01:28:56;;;;;;;2.70;1.90;;;11.70;97.20;;;;;;1957673;28;20045;-64
2023/06/04 01:29:56;;;;;;;6.18;2.22;;;10.40;96.60;;;;;;1948810;28;20440;-62
2023/06/04 01:30:56;;;;;;;3.67;1.75;;;10.40;96.80;;;;;;1948175;28;20187;-63
2023/06/04 01:31:53;;;;;;;4.95;2.33;;;10.50;96.80;;;;;;1954905;28;20510;-62
2023/06/04 01:32:55;;;;;;;3.28;1.92;;;10.50;96.50;;;;;;1946826;28;20042;-64
2023/06/04 01:33:53;;;;;;;2.85;2.25;;;10.50;96.50;;;;;;1947710;28;20126;-63
2023/06/04 01:34:50;;;;;;;3.78;2.20;;;10.50;96.40;;;;;;1948618;28;20078;-64
2023/06/04 01:35:49;;;;;;;3.80;1.92;;;10.60;96.20;;;;;;1951232;28;20097;-63
2023/06/04 01:36:46;;;;;;;3.55;2.25;;;10.60;96.50;;;;;;1946744;28;20031;-62
2023/06/04 01:37:44;;;;;;;3.75;2.22;;;10.50;96.60;;;;;;1941526;28;20031;-63
2023/06/04 01:38:41;;;;;;;2.38;1.80;;;10.60;96.30;;;;;;1947147;28;20071;-64
2023/06/04 01:39:39;;;;;;;3.10;2.33;;;10.50;96.10;;;;;;1949623;28;20781;-64
2023/06/04 01:40:37;;;;;;;4.60;1.90;;;10.60;96.30;;;;;;1949159;28;20023;-62
2023/06/04 01:41:34;;;;;;;4.35;2.50;;;10.60;95.90;;;;;;1946856;28;20169;-62
2023/06/04 01:42:32;;;;;;;5.75;2.08;;;10.60;95.80;;;;;;1949658;28;20023;-63
2023/06/04 01:43:30;;;;;;;4.82;2.28;;;10.60;96.00;;;;;;1947360;28;20023;-63
2023/06/04 01:44:27;;;;;;;3.42;2.28;;;10.60;95.90;;;;;;1951990;28;20043;-64
2023/06/04 01:45:26;;;;;;;7.00;2.17;;;10.60;96.10;;;;;;1949457;28;20102;-63
2023/06/04 01:46:23;;;;;;;3.47;2.20;;;10.80;95.90;;;;;;1948701;28;20113;-64
2023/06/04 01:47:21;;;;;;;3.25;2.00;;;10.60;95.90;;;;;;1947491;28;20070;-63
2023/06/04 01:48:18;;;;;;;4.80;2.53;;;10.60;95.80;;;;;;1948200;28;20084;-63
2023/06/04 01:49:16;;;;;;;2.72;2.30;;;10.60;95.80;;;;;;1948782;28;20069;-63
2023/06/04 01:50:13;;;;;;;3.38;1.90;;;10.60;95.90;;;;;;1949336;28;20038;-63
2023/06/04 01:51:11;;;;;;;3.50;1.95;;;10.60;96.10;;;;;;1949072;28;20022;-64
2023/06/04 01:52:08;;;;;;;3.78;2.28;;;10.60;96.20;;;;;;1947899;28;20039;-63
2023/06/04 01:53:06;;;;;;;3.97;2.08;;;10.60;96.50;;;;;;1948293;28;21241;-63
2023/06/04 01:54:04;;;;;;;5.50;2.35;;;10.60;96.50;;;;;;1947567;28;20031;-62
2023/06/04 01:55:01;;;;;;;3.58;2.22;;;10.60;96.20;;;;;;1947396;28;20050;-63
2023/06/04 01:55:59;;;;;;;2.47;2.22;;;10.60;96.30;;;;;;1949864;28;20045;-63
2023/06/04 01:56:56;;;;;;;3.65;2.40;;;10.50;96.50;;;;;;1949263;28;20042;-63
2023/06/04 01:57:54;;;;;;;2.58;2.00;;;10.60;96.50;;;;;;1950601;28;20126;-64
2023/06/04 01:58:52;;;;;;;2.88;1.98;;;10.60;96.50;;;;;;1949284;28;20046;-64
2023/06/04 01:59:50;;;;;;;3.55;2.08;;;10.50;96.50;;;;;;1951236;28;20026;-64
2023/06/04 02:00:52;;;;;;;8.02;2.47;;;10.50;96.60;;;;;;1950306;28;20059;-64
2023/06/04 02:01:50;;;;;;;4.55;2.45;;;10.50;96.80;;;;;;1948661;28;20019;-63
2023/06/04 02:02:50;;;;;;;4.15;2.42;;;10.50;96.50;;;;;;1947446;28;20031;-63
2023/06/04 02:03:48;;;;;;;4.70;2.60;;;10.50;96.90;;;;;;1950580;28;20027;-63
2023/06/04 02:04:46;;;;;;;3.38;1.90;;;10.50;96.90;;;;;;1949540;28;20027;-63
2023/06/04 02:05:46;;;;;;;3.80;2.50;;;10.50;96.90;;;;;;1949133;28;20031;-64
2023/06/04 02:06:44;;;;;;;5.10;2.05;;;10.50;96.70;;;;;;1949690;28;20031;-63
2023/06/04 02:07:44;;;;;;;3.15;2.38;;;10.50;96.90;;;;;;1947937;28;20042;-63
2023/06/04 02:08:42;;;;;;;4.47;2.25;;;10.50;96.90;;;;;;1951023;28;20718;-64
2023/06/04 02:09:40;;;;;;;3.63;1.98;;;10.40;96.80;;;;;;1948105;28;20031;-63
2023/06/04 02:10:38;;;;;;;5.07;2.58;;;10.50;97.00;;;;;;1950494;28;20516;-63
2023/06/04 02:11:35;;;;;;;6.32;2.10;;;10.50;96.60;;;;;;1949766;28;20031;-63
2023/06/04 02:12:35;;;;;;;3.15;2.50;;;10.50;96.70;;;;;;1948599;28;20488;-63
2023/06/04 02:13:32;;;;;;;3.88;2.22;;;10.40;97.00;;;;;;1949461;28;20207;-63
2023/06/04 02:14:30;;;;;;;3.10;1.92;;;10.50;96.60;;;;;;1950906;28;20038;-63
2023/06/04 02:15:30;;;;;;;6.43;2.30;;;10.50;96.40;;;;;;1950353;28;20388;-65
2023/06/04 02:16:27;;;;;;;4.97;2.15;;;10.50;96.30;;;;;;1950810;28;20019;-63
2023/06/04 02:17:25;;;;;;;3.22;2.08;;;10.50;96.60;;;;;;1949681;28;20640;-64
2023/06/04 02:18:22;;;;;;;3.83;1.80;;;10.40;96.50;;;;;;1950512;28;20027;-63
2023/06/04 02:19:20;;;;;;;3.63;2.22;;;10.50;96.60;;;;;;1948490;28;20029;-63
2023/06/04 02:20:18;;;;;;;5.20;2.55;;;10.50;96.50;;;;;;1951385;28;20113;-63
2023/06/04 02:21:15;;;;;;;5.40;2.65;;;10.50;96.50;;;;;;1950199;28;20023;-62
2023/06/04 02:22:13;;;;;;;4.28;2.38;;;10.50;96.60;;;;;;1948226;28;20101;-65
2023/06/04 02:23:10;;;;;;;3.10;1.92;;;10.50;96.40;;;;;;1949903;28;20031;-64
2023/06/04 02:24:08;;;;;;;7.30;2.10;;;10.50;96.80;;;;;;1951117;28;20456;-62
2023/06/04 02:25:08;;;;;;;3.78;2.42;;;10.50;96.40;;;;;;1950712;28;20023;-64
2023/06/04 02:26:06;;;;;;;6.30;2.40;;;10.50;96.40;;;;;;1949680;28;20472;-62
2023/06/04 02:27:05;;;;;;;3.90;2.22;;;10.50;96.40;;;;;;1947152;28;20034;-64
2023/06/04 02:28:02;;;;;;;2.47;1.92;;;10.50;96.40;;;;;;1949228;28;20023;-63
2023/06/04 02:29:00;;;;;;;3.00;1.95;;;10.50;96.30;;;;;;1947505;28;20058;-62
2023/06/04 02:29:57;;;;;;;4.60;2.42;;;10.50;96.40;;;;;;1949531;28;20042;-64
2023/06/04 02:30:55;;;;;;;4.47;2.30;;;10.50;96.60;;;;;;1946255;28;20075;-63
2023/06/04 02:31:52;;;;;;;2.42;1.85;;;10.40;96.50;;;;;;1949220;28;20047;-62
2023/06/04 02:32:50;;;;;;;3.92;2.47;;;10.40;97.00;;;;;;1946560;28;20045;-62
2023/06/04 02:33:48;;;;;;;4.65;2.22;;;10.40;96.90;;;;;;1950919;28;20037;-63
2023/06/04 02:34:45;;;;;;;3.08;2.08;;;10.40;96.90;;;;;;1952156;28;20070;-63
2023/06/04 02:35:43;;;;;;;3.25;1.88;;;10.40;97.40;;;;;;1947235;28;20093;-62
2023/06/04 02:36:40;;;;;;;5.75;2.38;;;10.40;97.10;;;;;;1950996;28;20385;-62
2023/06/04 02:37:38;;;;;;;3.33;2.20;;;10.40;96.90;;;;;;1947429;28;20062;-63
2023/06/04 02:38:35;;;;;;;3.33;2.40;;;10.40;96.80;;;;;;1950049;28;20022;-63
2023/06/04 02:39:33;;;;;;;7.05;2.65;;;10.40;96.90;;;;;;1949580;28;20035;-63
2023/06/04 02:40:30;;;;;;;3.92;2.42;;;10.40;97.20;;;;;;1948728;28;20030;-62
2023/06/04 02:41:28;;;;;;;2.42;1.77;;;10.40;97.10;;;;;;1948349;28;20018;-62
2023/06/04 02:42:25;;;;;;;5.55;2.38;;;10.40;97.20;;;;;;1950544;28;20022;-64
2023/06/04 02:43:23;;;;;;;4.80;2.22;;;10.40;97.20;;;;;;1947494;28;20118;-64
2023/06/04 02:44:21;;;;;;;3.45;2.20;;;10.40;97.10;;;;;;1948482;28;20031;-64
2023/06/04 02:45:18;;;;;;;3.55;2.30;;;10.40;97.30;;;;;;1950395;28;20484;-62
2023/06/04 02:46:16;;;;;;;4.43;1.70;;;10.30;97.50;;;;;;1949801;28;20383;-64
2023/06/04 02:47:13;;;;;;;3.25;2.30;;;10.40;97.10;;;;;;1948484;28;20042;-62
2023/06/04 02:48:11;;;;;;;4.47;2.28;;;10.40;97.50;;;;;;1949813;28;20451;-64
2023/06/04 02:49:09;;;;;;;2.95;1.80;;;10.40;97.50;;;;;;1950704;28;20110;-64
2023/06/04 02:50:07;;;;;;;5.65;2.45;;;10.40;97.50;;;;;;1950383;28;20114;-62
2023/06/04 02:51:05;;;;;;;3.55;2.13;;;10.40;97.40;;;;;;1949972;28;20058;-63
2023/06/04 02:52:02;;;;;;;5.07;2.50;;;10.40;97.30;;;;;;1951743;28;20019;-63
2023/06/04 02:53:00;;;;;;;5.15;2.58;;;10.40;97.20;;;;;;1949913;28;20089;-63
2023/06/04 02:53:57;;;;;;;6.90;2.05;;;10.40;97.30;;;;;;1950992;28;20023;-62
2023/06/04 02:54:55;;;;;;;3.65;2.20;;;10.40;97.40;;;;;;1950728;28;20507;-62
2023/06/04 02:55:52;;;;;;;3.33;2.20;;;10.40;97.50;;;;;;1948580;28;20049;-64
2023/06/04 02:56:51;;;;;;;6.43;2.15;;;10.40;97.50;;;;;;1950342;28;20031;-64
2023/06/04 02:57:48;;;;;;;3.67;2.22;;;10.40;97.70;;;;;;1947443;28;20517;-64
2023/06/04 02:58:53;;;;;;;2.60;2.08;;;10.30;97.80;;;;;;1948325;28;20038;-63
2023/06/04 02:59:51;;;;;;;3.13;2.20;;;10.30;97.60;;;;;;1949128;28;20093;-64
2023/06/04 03:00:49;;;;;;;8.27;2.35;;;10.30;97.70;;;;;;1949325;28;20030;-63
2023/06/04 03:01:46;;;;;;;3.10;2.30;;;10.30;98.30;;;;;;1949879;28;20043;-65
2023/06/04 03:02:45;;;;;;;4.68;2.40;;;10.30;98.30;;;;;;1947566;28;20019;-63
2023/06/04 03:03:45;;;;;;;4.97;2.22;;;10.30;98.10;;;;;;1937765;28;20035;-63
2023/06/04 03:04:44;;;;;;;3.17;2.22;;;10.30;98.40;;;;;;1949577;28;20129;-64
2023/06/04 03:05:42;;;;;;;4.05;2.45;;;10.30;98.50;;;;;;1950158;28;20026;-62
2023/06/04 03:06:40;;;;;;;3.75;2.28;;;10.30;98.40;;;;;;1947864;28;20035;-63
2023/06/04 03:07:38;;;;;;;3.13;1.92;;;10.30;98.40;;;;;;1950676;28;20081;-62
2023/06/04 03:08:35;;;;;;;3.10;2.28;;;10.20;98.50;;;;;;1948332;28;20110;-62
2023/06/04 03:09:33;;;;;;;10.85;2.67;;;10.30;98.50;;;;;;1949707;28;20062;-63
2023/06/04 03:10:31;;;;;;;4.00;1.95;;;10.30;98.40;;;;;;1947454;28;20037;-64
2023/06/04 03:11:28;;;;;;;4.55;2.25;;;10.30;98.50;;;;;;1945822;28;20037;-63
2023/06/04 03:12:26;;;;;;;4.65;2.53;;;10.20;98.60;;;;;;1945249;28;20579;-64
2023/06/04 03:13:23;;;;;;;4.13;2.13;;;10.20;98.50;;;;;;1948087;28;20549;-63
2023/06/04 03:14:21;;;;;;;4.00;2.30;;;10.20;98.60;;;;;;1950038;28;20118;-64
2023/06/04 03:15:18;;;;;;;3.75;2.30;;;10.30;98.50;;;;;;1949306;28;20394;-63
2023/06/04 03:16:16;;;;;;;3.33;2.40;;;10.20;98.60;;;;;;1950465;28;20022;-63
2023/06/04 03:17:14;;;;;;;3.38;2.38;;;10.20;98.40;;;;;;1950846;28;20035;-62
2023/06/04 03:18:11;;;;;;;5.30;2.00;;;10.20;98.50;;;;;;1947921;28;20037;-63
2023/06/04 03:19:11;;;;;;;2.88;1.75;;;10.30;98.60;;;;;;1948802;28;20161;-62
2023/06/04 03:20:09;;;;;;;6.63;2.20;;;10.30;99.10;;;;;;1949386;28;20025;-63
2023/06/04 03:21:06;;;;;;;5.45;1.77;;;10.30;98.50;;;;;;1948268;28;20093;-64
2023/06/04 03:22:05;;;;;;;4.97;2.33;;;10.30;98.50;;;;;;1945046;28;20050;-62
2023/06/04 03:23:03;;;;;;;4.75;2.47;;;10.30;98.80;;;;;;1949427;28;20022;-62
2023/06/04 03:24:00;;;;;;;4.25;2.15;;;10.30;98.80;;;;;;1956094;28;20169;-63
2023/06/04 03:24:58;;;;;;;8.70;2.15;;;10.30;99.00;;;;;;1959257;28;20080;-63
2023/06/04 03:25:55;;;;;;;3.67;2.15;;;10.30;98.80;;;;;;1948314;28;20035;-62
2023/06/04 03:26:53;;;;;;;2.50;1.55;;;10.30;98.80;;;;;;1950076;28;20189;-63
2023/06/04 03:27:50;;;;;;;2.58;2.13;;;10.30;99.10;;;;;;1949337;28;20100;-63
2023/06/04 03:28:48;;;;;;;5.18;2.40;;;10.30;99.00;;;;;;1951440;28;20420;-63
2023/06/04 03:29:45;;;;;;;2.00;1.63;;;10.30;99.30;;;;;;1949817;28;20492;-63
2023/06/04 03:30:43;;;;;;;4.65;2.60;;;10.30;99.00;;;;;;1950353;28;20031;-62
2023/06/04 03:31:40;;;;;;;6.28;2.55;;;10.30;99.30;;;;;;1948174;28;20433;-62
2023/06/04 03:32:38;;;;;;;3.25;1.92;;;10.30;99.20;;;;;;1948672;28;20027;-63
2023/06/04 03:33:36;;;;;;;3.15;2.10;;;10.20;99.10;;;;;;1947923;28;20027;-62
2023/06/04 03:34:33;;;;;;;6.85;2.58;;;10.30;99.10;;;;;;1954994;28;20031;-62
2023/06/04 03:35:31;;;;;;;2.17;1.88;;;10.30;99.20;;;;;;1950500;28;20058;-62
2023/06/04 03:36:32;;;;;;;3.90;2.20;;;10.20;99.20;;;;;;1950701;28;20037;-62
2023/06/04 03:37:32;;;;;;;4.10;2.20;;;10.20;99.30;;;;;;1943791;28;20027;-63
2023/06/04 03:38:30;;;;;;;3.35;2.47;;;10.20;99.20;;;;;;1944185;28;20484;-64
2023/06/04 03:39:27;;;;;;;4.30;2.42;;;10.20;99.50;;;;;;1948418;28;20027;-64
2023/06/04 03:40:25;;;;;;;5.43;2.38;;;10.20;99.50;;;;;;1949358;28;20563;-63
2023/06/04 03:41:22;;;;;;;3.40;2.30;;;10.20;99.70;;;;;;1950010;28;20019;-63
2023/06/04 03:42:20;;;;;;;7.10;2.63;;;10.20;99.70;;;;;;1947777;28;20037;-63
2023/06/04 03:43:18;;;;;;;4.07;2.53;;;10.20;99.30;;;;;;1948998;28;20241;-62
2023/06/04 03:44:16;;;;;;;5.65;2.63;;;10.20;99.40;;;;;;1948034;28;20181;-63
2023/06/04 03:45:14;;;;;;;5.63;2.05;;;10.10;99.60;;;;;;1950798;28;20036;-62
2023/06/04 03:46:11;;;;;;;3.33;2.30;;;10.20;99.90;;;;;;1950066;28;20018;-62
2023/06/04 03:47:09;;;;;;;3.92;2.80;;;10.20;99.70;;;;;;1948144;28;20034;-63
2023/06/04 03:48:06;;;;;;;4.47;2.50;;;10.20;99.70;;;;;;1949216;28;20452;-64
2023/06/04 03:49:04;;;;;;;3.85;2.92;;;10.20;99.60;;;;;;1949400;28;20027;-63
2023/06/04 03:50:02;;;;;;;5.25;2.95;;;10.10;99.60;;;;;;1951537;28;20027;-62
2023/06/04 03:50:59;;;;;;;5.85;2.75;;;10.20;99.90;;;;;;1949777;28;20484;-62
2023/06/04 03:51:57;;;;;;;2.90;2.47;;;10.20;99.80;;;;;;1950019;28;20031;-64
2023/06/04 03:52:54;;;;;;;5.70;2.28;;;10.20;99.70;;;;;;1947747;28;20038;-62
2023/06/04 03:53:52;;;;;;;4.68;2.78;;;10.20;99.90;;;;;;1950145;28;20134;-62
2023/06/04 03:54:49;;;;;;;3.60;2.50;;;10.20;99.90;;;;;;1950917;28;20031;-63
2023/06/04 03:55:47;;;;;;;7.30;2.90;;;10.20;99.80;;;;;;1951602;28;20027;-63
2023/06/04 03:56:45;;;;;;;4.93;2.38;;;10.20;99.60;;;;;;1950274;28;20045;-63
2023/06/04 03:57:42;;;;;;;5.63;2.63;;;10.20;99.90;;;;;;1951882;28;20027;-61
2023/06/04 03:58:40;;;;;;;6.25;3.50;;;10.20;99.90;;;;;;1948745;28;20027;-62
2023/06/04 03:59:38;;;;;;;6.85;3.00;;;10.20;99.90;;;;;;1950044;28;20027;-64
2023/06/04 04:00:36;;;;;;;4.18;2.83;;;10.20;99.70;;;;;;1950649;28;20484;-64
2023/06/04 04:01:34;;;;;;;5.43;3.17;;;10.20;99.90;;;;;;1948907;28;20031;-65
2023/06/04 04:02:31;;;;;;;4.68;2.92;;;10.20;99.90;;;;;;1948825;28;20030;-63
2023/06/04 04:03:30;;;;;;;6.38;3.00;;;10.20;99.90;;;;;;1948200;28;20030;-64
2023/06/04 04:04:28;;;;;;;4.53;3.17;;;10.20;99.90;;;;;;1948654;28;20102;-63
2023/06/04 04:05:26;;;;;;;8.43;3.45;;;10.20;99.90;;;;;;1950587;28;20026;-62
2023/06/04 04:06:23;;;;;;;5.03;3.17;;;10.20;99.90;;;;;;1949571;28;20026;-64
2023/06/04 04:07:21;;;;;;;4.20;2.83;;;10.20;99.90;;;;;;1949123;28;20026;-63
2023/06/04 04:08:21;;;;;;;5.28;3.30;;;10.20;99.90;;;;;;1949577;28;20029;-63
2023/06/04 04:09:18;;;;;;;3.53;2.72;;;10.20;99.90;;;;;;1950374;28;20042;-64
2023/06/04 04:10:16;;;;;;;6.82;3.05;;;10.20;99.90;;;;;;1953017;28;20027;-63
2023/06/04 04:11:14;;;;;;;7.55;2.97;;;10.20;99.90;;;;;;1950141;28;20039;-63
2023/06/04 04:12:11;;;;;;;4.63;3.08;;;10.20;99.90;;;;;;1952869;28;20125;-63
2023/06/04 04:13:09;;;;;;;4.78;3.10;;;10.30;99.90;;;;;;1948066;28;20102;-64
2023/06/04 04:14:06;;;;;;;6.22;3.40;;;10.30;99.90;;;;;;1951071;28;20019;-62
2023/06/04 04:15:04;;;;;;;4.75;2.83;;;10.30;99.90;;;;;;1950393;28;20035;-62
2023/06/04 04:16:03;;;;;;;5.55;3.15;;;10.30;99.90;;;;;;1950826;28;20037;-63
2023/06/04 04:17:00;;;;;;;5.15;2.92;;;10.30;99.90;;;;;;1948519;28;20113;-62
2023/06/04 04:17:58;;;;;;;4.72;3.10;;;10.30;99.90;;;;;;1948321;28;20738;-63
2023/06/04 04:18:55;;;;;;;5.93;3.22;;;10.30;99.90;;;;;;1947987;28;20059;-63
2023/06/04 04:19:53;;;;;;;11.70;3.00;;;10.30;99.90;;;;;;1948434;28;20027;-62
2023/06/04 04:20:50;;;;;;;7.80;3.33;;;10.30;99.90;;;;;;1950616;28;20027;-63
2023/06/04 04:21:48;;;;;;;5.70;3.20;;;10.30;99.90;;;;;;1950969;28;20463;-64
2023/06/04 04:22:45;;;;;;;6.35;3.40;;;10.30;99.90;;;;;;1947339;28;20032;-63
2023/06/04 04:23:45;;;;;;;4.75;3.20;;;10.30;99.90;;;;;;1949120;28;20027;-62
2023/06/04 04:24:43;;;;;;;3.67;2.85;;;10.40;99.90;;;;;;1950883;28;20022;-62
2023/06/04 04:25:41;;;;;;;5.95;3.33;;;10.40;99.90;;;;;;1950732;28;20058;-64
2023/06/04 04:26:38;;;;;;;7.38;3.53;;;10.40;99.90;;;;;;1954527;28;20093;-63
2023/06/04 04:27:40;;;;;;;4.15;3.13;;;10.40;99.90;;;;;;1947377;28;20023;-64
2023/06/04 04:28:38;;;;;;;6.22;3.50;;;10.40;99.90;;;;;;1950304;28;20033;-63
2023/06/04 04:29:35;;;;;;;4.95;3.42;;;10.40;99.90;;;;;;1949784;28;20038;-63
2023/06/04 04:30:36;;;;;;;5.35;3.42;;;10.40;99.90;;;;;;1949755;28;20042;-62
2023/06/04 04:31:37;;;;;;;6.35;3.22;;;10.40;99.90;;;;;;1947497;28;20046;-62
2023/06/04 04:32:38;;;;;;;7.85;3.55;;;10.50;99.90;;;;;;1948440;28;20110;-62
2023/06/04 04:33:39;;;;;;;10.18;3.72;;;10.50;99.90;;;;;;1948245;28;20038;-62
2023/06/04 04:34:37;;;;;;;6.28;3.97;;;10.50;99.90;;;;;;1945933;28;20069;-64
2023/06/04 04:35:35;;;;;;;4.25;3.15;;;10.50;99.90;;;;;;1946842;28;20042;-63
2023/06/04 04:36:32;;;;;;;8.02;3.65;;;10.50;99.90;;;;;;1949254;28;20045;-63
2023/06/04 04:37:30;;;;;;;7.90;3.45;;;10.50;99.90;;;;;;1945299;28;20037;-62
2023/06/04 04:38:28;;;;;;;5.03;3.28;;;10.50;99.90;;;;;;1950634;28;20031;-65
2023/06/04 04:39:26;;;;;;;3.92;3.17;;;10.50;99.90;;;;;;1948790;28;21265;-62
2023/06/04 04:40:23;;;;;;;4.68;3.42;;;10.60;99.90;;;;;;1949218;28;20027;-62
2023/06/04 04:41:22;;;;;;;7.10;3.70;;;10.60;99.90;;;;;;1951224;28;20127;-63
2023/06/04 04:42:20;;;;;;;12.23;3.45;;;10.60;99.90;;;;;;1952582;28;20102;-63
2023/06/04 04:43:30;;;;;;;4.53;3.78;;;10.60;99.90;;;;;;1948609;28;20840;-63
2023/06/04 04:44:28;;;;;;;5.55;3.22;;;10.60;99.90;;;;;;1948792;28;20030;-63
2023/06/04 04:45:25;;;;;;;3.42;3.13;;;10.60;99.90;;;;;;1949845;28;20027;-64
2023/06/04 04:46:23;;;;;;;5.93;3.28;;;10.70;99.90;;;;;;1950574;28;20056;-63
2023/06/04 04:47:20;;;;;;;5.78;3.28;;;10.70;99.90;;;;;;1948728;28;20026;-62
2023/06/04 04:48:18;;;;;;;5.07;3.83;;;10.70;99.90;;;;;;1950272;28;20030;-63
2023/06/04 04:49:15;;;;;;;6.32;3.13;;;10.70;99.90;;;;;;1951682;28;20054;-63
2023/06/04 04:50:13;;;;;;;4.72;3.55;;;10.70;99.90;;;;;;1948631;28;20035;-64
2023/06/04 04:51:10;;;;;;;8.77;3.40;;;10.70;99.90;;;;;;1946860;28;20472;-63
2023/06/04 04:52:08;;;;;;;4.95;3.47;;;10.70;99.90;;;;;;1949857;28;20019;-64
2023/06/04 04:53:06;;;;;;;6.78;4.15;;;10.80;99.90;;;;;;1946981;28;20027;-63
2023/06/04 04:54:03;;;;;;;5.60;3.72;;;10.80;99.90;;;;;;1948247;28;20122;-63
2023/06/04 04:55:01;;;;;;;7.63;3.33;;;10.80;99.90;;;;;;1949452;28;20208;-62
2023/06/04 04:55:58;;;;;;;5.28;3.80;;;10.80;99.90;;;;;;1948072;28;20019;-62
2023/06/04 04:56:56;;;;;;;4.65;3.25;;;10.80;99.90;;;;;;1949147;28;20376;-64
2023/06/04 04:57:53;;;;;;;5.03;3.42;;;10.90;99.90;;;;;;1947346;28;20046;-63
2023/06/04 04:58:51;;;;;;;4.55;3.40;;;10.90;99.90;;;;;;1946460;28;20082;-62
2023/06/04 04:59:48;;;;;;;4.88;3.47;;;10.80;99.80;;;;;;1950649;28;20086;-62
2023/06/04 05:00:47;;;;;;;6.78;3.70;;;10.90;99.90;;;;;;1949440;28;20198;-62
2023/06/04 05:01:45;;;;;;;6.75;3.38;;;10.90;99.80;;;;;;1949022;28;20030;-61
2023/06/04 05:02:42;;;;;;;7.45;4.15;;;11.10;99.90;;;;;;1948996;28;20030;-62